Olympia, Washington
Current Conditions -  °F | °C
As of 12:30 AM on Friday 28 Nov 2014 (Local Time) from KOLM Reporting Station
Broken Clouds Broken Clouds  
Wind Chill: 12°   Ceiling: 1100
Heat Index: 12°   Visibility: 10mi
Dew Point: 10°   Wind: 10mph
Humidity: 89%   Direction: 200°SSW
Pressure: 29.7"   Gusts: NA
Location:  47.04°N, 122.89°W
Report Text: KOLM 280830Z AUTO 20009KT 10SM BKN011 BKN022 BKN029 12/10 A2970 RMK AO2 T01170100
Loading
Personal Weather Stations






























Interactive Weather Map New forecast layout! Learn more

10-Day Weather Forecast

Advertisements
Track Severe Weather on mobile